sensor_id;sensor_type;location;lat;lon;timestamp;pressure;altitude;pressure_sealevel;temperature;humidity
72118;BME280;59992;47.490;8.736;2024-03-22T00:01:17;97347.01;;;7.94;97.56
72118;BME280;59992;47.490;8.736;2024-03-22T00:04:08;97341.44;;;7.91;96.69
72118;BME280;59992;47.490;8.736;2024-03-22T00:06:56;97336.13;;;7.85;95.83
72118;BME280;59992;47.490;8.736;2024-03-22T00:09:45;97338.11;;;7.80;94.91
72118;BME280;59992;47.490;8.736;2024-03-22T00:12:34;97341.79;;;7.78;94.04
72118;BME280;59992;47.490;8.736;2024-03-22T00:15:23;97342.91;;;7.71;94.24
72118;BME280;59992;47.490;8.736;2024-03-22T00:18:10;97343.96;;;7.62;96.15
72118;BME280;59992;47.490;8.736;2024-03-22T00:20:59;97346.36;;;7.56;96.34
72118;BME280;59992;47.490;8.736;2024-03-22T00:23:50;97344.65;;;7.51;94.90
72118;BME280;59992;47.490;8.736;2024-03-22T00:26:38;97340.75;;;7.45;93.96
72118;BME280;59992;47.490;8.736;2024-03-22T00:29:27;97334.36;;;7.40;93.15
72118;BME280;59992;47.490;8.736;2024-03-22T00:32:15;97333.13;;;7.33;93.71
72118;BME280;59992;47.490;8.736;2024-03-22T00:35:04;97333.84;;;7.24;94.67
72118;BME280;59992;47.490;8.736;2024-03-22T00:37:52;97338.30;;;7.16;95.95
72118;BME280;59992;47.490;8.736;2024-03-22T00:40:41;97332.66;;;7.09;95.97
72118;BME280;59992;47.490;8.736;2024-03-22T00:43:29;97333.77;;;7.03;95.68
72118;BME280;59992;47.490;8.736;2024-03-22T00:46:18;97334.08;;;6.97;94.39
72118;BME280;59992;47.490;8.736;2024-03-22T00:49:06;97332.72;;;6.91;94.15
72118;BME280;59992;47.490;8.736;2024-03-22T00:51:55;97327.21;;;6.86;93.69
72118;BME280;59992;47.490;8.736;2024-03-22T00:54:46;97323.46;;;6.80;95.55
72118;BME280;59992;47.490;8.736;2024-03-22T00:57:34;97317.08;;;6.73;95.89
72118;BME280;59992;47.490;8.736;2024-03-22T01:00:22;97312.89;;;6.66;96.28
72118;BME280;59992;47.490;8.736;2024-03-22T01:03:10;97308.04;;;6.61;99.03
72118;BME280;59992;47.490;8.736;2024-03-22T01:05:58;97306.86;;;6.59;98.84
72118;BME280;59992;47.490;8.736;2024-03-22T01:08:47;97306.35;;;6.55;98.33
72118;BME280;59992;47.490;8.736;2024-03-22T01:11:35;97303.17;;;6.53;97.22
72118;BME280;59992;47.490;8.736;2024-03-22T01:14:24;97302.89;;;6.49;95.84
72118;BME280;59992;47.490;8.736;2024-03-22T01:17:12;97303.07;;;6.45;98.97
72118;BME280;59992;47.490;8.736;2024-03-22T01:20:01;97302.21;;;6.42;100.00
72118;BME280;59992;47.490;8.736;2024-03-22T01:22:49;97299.00;;;6.41;100.00
72118;BME280;59992;47.490;8.736;2024-03-22T01:25:37;97301.42;;;6.39;100.00
72118;BME280;59992;47.490;8.736;2024-03-22T01:28:25;97300.34;;;6.37;99.70
72118;BME280;59992;47.490;8.736;2024-03-22T01:31:13;97301.40;;;6.33;98.63
72118;BME280;59992;47.490;8.736;2024-03-22T01:34:01;97296.89;;;6.29;98.09
72118;BME280;59992;47.490;8.736;2024-03-22T01:36:51;97293.06;;;6.26;97.49
72118;BME280;59992;47.490;8.736;2024-03-22T01:39:40;97290.51;;;6.22;98.24
72118;BME280;59992;47.490;8.736;2024-03-22T01:42:29;97289.45;;;6.19;98.97
72118;BME280;59992;47.490;8.736;2024-03-22T01:45:17;97285.49;;;6.18;100.00
72118;BME280;59992;47.490;8.736;2024-03-22T01:48:07;97281.60;;;6.16;100.00
72118;BME280;59992;47.490;8.736;2024-03-22T01:50:56;97281.27;;;6.16;99.89
72118;BME280;59992;47.490;8.736;2024-03-22T01:53:45;97279.46;;;6.16;100.00
72118;BME280;59992;47.490;8.736;2024-03-22T01:56:33;97273.42;;;6.17;100.00
72118;BME280;59992;47.490;8.736;2024-03-22T01:59:22;97273.14;;;6.19;100.00
72118;BME280;59992;47.490;8.736;2024-03-22T02:02:11;97271.55;;;6.23;100.00
72118;BME280;59992;47.490;8.736;2024-03-22T02:05:12;97264.58;;;6.25;100.00
72118;BME280;59992;47.490;8.736;2024-03-22T02:08:01;97267.00;;;6.25;100.00
72118;BME280;59992;47.490;8.736;2024-03-22T02:10:50;97268.30;;;6.26;100.00
72118;BME280;59992;47.490;8.736;2024-03-22T02:13:38;97266.23;;;6.24;99.96
72118;BME280;59992;47.490;8.736;2024-03-22T02:16:27;97264.39;;;6.22;100.00
72118;BME280;59992;47.490;8.736;2024-03-22T02:19:15;97259.90;;;6.23;100.00
72118;BME280;59992;47.490;8.736;2024-03-22T02:22:03;97257.52;;;6.23;100.00
72118;BME280;59992;47.490;8.736;2024-03-22T02:24:52;97252.50;;;6.26;100.00
72118;BME280;59992;47.490;8.736;2024-03-22T02:27:40;97251.88;;;6.27;100.00
72118;BME280;59992;47.490;8.736;2024-03-22T02:30:28;97248.70;;;6.28;100.00
72118;BME280;59992;47.490;8.736;2024-03-22T02:33:17;97244.27;;;6.32;100.00
72118;BME280;59992;47.490;8.736;2024-03-22T02:36:06;97238.73;;;6.35;100.00
72118;BME280;59992;47.490;8.736;2024-03-22T02:38:54;97241.52;;;6.38;100.00
72118;BME280;59992;47.490;8.736;2024-03-22T02:41:43;97238.00;;;6.41;100.00
72118;BME280;59992;47.490;8.736;2024-03-22T02:44:31;97236.79;;;6.43;100.00
72118;BME280;59992;47.490;8.736;2024-03-22T02:47:19;97233.60;;;6.42;100.00
72118;BME280;59992;47.490;8.736;2024-03-22T02:50:09;97224.95;;;6.36;100.00
72118;BME280;59992;47.490;8.736;2024-03-22T02:52:57;97229.63;;;6.44;100.00
72118;BME280;59992;47.490;8.736;2024-03-22T02:55:45;97226.88;;;6.47;100.00
72118;BME280;59992;47.490;8.736;2024-03-22T02:58:34;97222.05;;;6.51;100.00
72118;BME280;59992;47.490;8.736;2024-03-22T03:01:23;97220.98;;;6.54;100.00
72118;BME280;59992;47.490;8.736;2024-03-22T03:04:12;97219.33;;;6.54;100.00
72118;BME280;59992;47.490;8.736;2024-03-22T03:07:00;97217.52;;;6.56;100.00
72118;BME280;59992;47.490;8.736;2024-03-22T03:09:48;97216.02;;;6.52;100.00
72118;BME280;59992;47.490;8.736;2024-03-22T03:12:36;97212.84;;;6.48;100.00
72118;BME280;59992;47.490;8.736;2024-03-22T03:15:24;97214.48;;;6.45;100.00
72118;BME280;59992;47.490;8.736;2024-03-22T03:18:13;97208.77;;;6.44;100.00
72118;BME280;59992;47.490;8.736;2024-03-22T03:21:02;97207.92;;;6.42;100.00
72118;BME280;59992;47.490;8.736;2024-03-22T03:23:50;97208.45;;;6.42;100.00
72118;BME280;59992;47.490;8.736;2024-03-22T03:26:38;97204.83;;;6.39;100.00
72118;BME280;59992;47.490;8.736;2024-03-22T03:29:27;97208.89;;;6.37;100.00
72118;BME280;59992;47.490;8.736;2024-03-22T03:32:15;97207.70;;;6.36;100.00
72118;BME280;59992;47.490;8.736;2024-03-22T03:35:04;97211.61;;;6.32;100.00
72118;BME280;59992;47.490;8.736;2024-03-22T03:37:53;97211.44;;;6.29;100.00
72118;BME280;59992;47.490;8.736;2024-03-22T03:40:41;97204.77;;;6.26;100.00
72118;BME280;59992;47.490;8.736;2024-03-22T03:43:29;97200.98;;;6.24;100.00
72118;BME280;59992;47.490;8.736;2024-03-22T03:46:17;97203.60;;;6.23;100.00
72118;BME280;59992;47.490;8.736;2024-03-22T03:49:06;97196.87;;;6.24;100.00
72118;BME280;59992;47.490;8.736;2024-03-22T03:51:54;97191.15;;;6.22;100.00
72118;BME280;59992;47.490;8.736;2024-03-22T03:54:42;97187.47;;;6.21;100.00
72118;BME280;59992;47.490;8.736;2024-03-22T03:57:30;97183.25;;;6.22;100.00
72118;BME280;59992;47.490;8.736;2024-03-22T04:00:19;97178.77;;;6.23;100.00
72118;BME280;59992;47.490;8.736;2024-03-22T04:03:07;97173.84;;;6.22;100.00
72118;BME280;59992;47.490;8.736;2024-03-22T04:05:59;97171.27;;;6.22;100.00
72118;BME280;59992;47.490;8.736;2024-03-22T04:08:47;97170.81;;;6.23;100.00
72118;BME280;59992;47.490;8.736;2024-03-22T04:11:36;97168.59;;;6.26;100.00
72118;BME280;59992;47.490;8.736;2024-03-22T04:14:25;97158.98;;;6.27;100.00
72118;BME280;59992;47.490;8.736;2024-03-22T04:17:14;97160.79;;;6.31;100.00
72118;BME280;59992;47.490;8.736;2024-03-22T04:20:02;97161.90;;;6.32;100.00
72118;BME280;59992;47.490;8.736;2024-03-22T04:22:51;97159.88;;;6.34;100.00
72118;BME280;59992;47.490;8.736;2024-03-22T04:25:53;97162.32;;;6.35;100.00
72118;BME280;59992;47.490;8.736;2024-03-22T04:28:42;97159.34;;;6.36;100.00
72118;BME280;59992;47.490;8.736;2024-03-22T04:31:30;97161.63;;;6.38;100.00
72118;BME280;59992;47.490;8.736;2024-03-22T04:34:18;97164.02;;;6.41;100.00
72118;BME280;59992;47.490;8.736;2024-03-22T04:37:07;97161.48;;;6.41;100.00
72118;BME280;59992;47.490;8.736;2024-03-22T04:39:55;97163.44;;;6.41;100.00
72118;BME280;59992;47.490;8.736;2024-03-22T04:42:43;97163.59;;;6.43;100.00
72118;BME280;59992;47.490;8.736;2024-03-22T04:45:32;97160.98;;;6.44;100.00
72118;BME280;59992;47.490;8.736;2024-03-22T04:48:21;97162.59;;;6.44;100.00
72118;BME280;59992;47.490;8.736;2024-03-22T04:51:09;97158.34;;;6.43;100.00
72118;BME280;59992;47.490;8.736;2024-03-22T04:53:58;97157.41;;;6.45;100.00
72118;BME280;59992;47.490;8.736;2024-03-22T04:56:46;97156.05;;;6.49;100.00
72118;BME280;59992;47.490;8.736;2024-03-22T04:59:34;97154.77;;;6.51;100.00
72118;BME280;59992;47.490;8.736;2024-03-22T05:02:23;97152.25;;;6.53;100.00
72118;BME280;59992;47.490;8.736;2024-03-22T05:05:11;97151.79;;;6.57;100.00
72118;BME280;59992;47.490;8.736;2024-03-22T05:07:59;97146.94;;;6.60;100.00
72118;BME280;59992;47.490;8.736;2024-03-22T05:10:48;97147.30;;;6.62;100.00
72118;BME280;59992;47.490;8.736;2024-03-22T05:13:36;97146.83;;;6.63;100.00
72118;BME280;59992;47.490;8.736;2024-03-22T05:16:24;97148.15;;;6.65;100.00
72118;BME280;59992;47.490;8.736;2024-03-22T05:19:12;97144.49;;;6.65;100.00
72118;BME280;59992;47.490;8.736;2024-03-22T05:22:00;97139.79;;;6.62;100.00
72118;BME280;59992;47.490;8.736;2024-03-22T05:24:48;97136.77;;;6.64;100.00
72118;BME280;59992;47.490;8.736;2024-03-22T05:27:37;97133.83;;;6.66;100.00
72118;BME280;59992;47.490;8.736;2024-03-22T05:30:25;97133.45;;;6.70;100.00
72118;BME280;59992;47.490;8.736;2024-03-22T05:33:13;97133.16;;;6.72;100.00
72118;BME280;59992;47.490;8.736;2024-03-22T05:36:01;97132.61;;;6.76;100.00
72118;BME280;59992;47.490;8.736;2024-03-22T05:38:51;97131.92;;;6.80;100.00
72118;BME280;59992;47.490;8.736;2024-03-22T05:41:39;97131.23;;;6.83;100.00
72118;BME280;59992;47.490;8.736;2024-03-22T05:44:27;97131.02;;;6.88;100.00
72118;BME280;59992;47.490;8.736;2024-03-22T05:47:15;97131.20;;;6.93;100.00
72118;BME280;59992;47.490;8.736;2024-03-22T05:50:04;97130.31;;;6.99;100.00
72118;BME280;59992;47.490;8.736;2024-03-22T05:52:54;97129.52;;;7.06;100.00
72118;BME280;59992;47.490;8.736;2024-03-22T05:55:42;97132.14;;;7.14;100.00
72118;BME280;59992;47.490;8.736;2024-03-22T05:58:30;97130.77;;;7.22;100.00
72118;BME280;59992;47.490;8.736;2024-03-22T06:01:18;97126.67;;;7.30;100.00
72118;BME280;59992;47.490;8.736;2024-03-22T06:04:07;97122.39;;;7.36;100.00
72118;BME280;59992;47.490;8.736;2024-03-22T06:06:55;97121.45;;;7.46;100.00
72118;BME280;59992;47.490;8.736;2024-03-22T06:09:43;97121.50;;;7.54;100.00
72118;BME280;59992;47.490;8.736;2024-03-22T06:12:34;97117.91;;;7.63;100.00
72118;BME280;59992;47.490;8.736;2024-03-22T06:15:22;97116.30;;;7.72;100.00
72118;BME280;59992;47.490;8.736;2024-03-22T06:18:10;97107.20;;;7.72;100.00
72118;BME280;59992;47.490;8.736;2024-03-22T06:20:58;97118.35;;;7.93;100.00
72118;BME280;59992;47.490;8.736;2024-03-22T06:23:47;97120.34;;;8.03;100.00
72118;BME280;59992;47.490;8.736;2024-03-22T06:26:35;97116.84;;;8.09;97.32
72118;BME280;59992;47.490;8.736;2024-03-22T06:29:23;97115.20;;;8.14;94.91
72118;BME280;59992;47.490;8.736;2024-03-22T06:32:12;97109.81;;;8.21;96.74
72118;BME280;59992;47.490;8.736;2024-03-22T06:35:01;97112.38;;;8.40;96.34
72118;BME280;59992;47.490;8.736;2024-03-22T06:37:53;97104.90;;;8.50;93.95
72118;BME280;59992;47.490;8.736;2024-03-22T06:40:41;97104.83;;;8.63;96.74
72118;BME280;59992;47.490;8.736;2024-03-22T06:43:30;97103.96;;;8.80;96.09
72118;BME280;59992;47.490;8.736;2024-03-22T06:46:18;97103.45;;;8.96;94.51
72118;BME280;59992;47.490;8.736;2024-03-22T06:49:06;97106.15;;;9.15;91.95
72118;BME280;59992;47.490;8.736;2024-03-22T06:51:54;97108.90;;;9.33;90.10
72118;BME280;59992;47.490;8.736;2024-03-22T06:54:43;97106.61;;;9.52;90.54
72118;BME280;59992;47.490;8.736;2024-03-22T06:57:31;97103.25;;;9.78;92.05
72118;BME280;59992;47.490;8.736;2024-03-22T07:00:25;97107.41;;;10.02;90.95
72118;BME280;59992;47.490;8.736;2024-03-22T07:03:20;97114.02;;;10.43;89.29
72118;BME280;59992;47.490;8.736;2024-03-22T07:06:17;97111.84;;;11.08;91.23
72118;BME280;59992;47.490;8.736;2024-03-22T07:09:09;97114.52;;;11.95;91.97
72118;BME280;59992;47.490;8.736;2024-03-22T07:11:57;97114.86;;;12.46;78.81
72118;BME280;59992;47.490;8.736;2024-03-22T07:14:45;97119.26;;;12.67;86.94
72118;BME280;59992;47.490;8.736;2024-03-22T07:17:33;97116.59;;;12.72;82.46
72118;BME280;59992;47.490;8.736;2024-03-22T07:20:21;97102.08;;;12.72;80.77
72118;BME280;59992;47.490;8.736;2024-03-22T07:23:09;97111.63;;;12.83;83.53
72118;BME280;59992;47.490;8.736;2024-03-22T07:25:58;97111.70;;;12.76;76.40
72118;BME280;59992;47.490;8.736;2024-03-22T07:28:47;97112.44;;;12.87;77.45
72118;BME280;59992;47.490;8.736;2024-03-22T07:31:36;97112.37;;;12.86;71.90
72118;BME280;59992;47.490;8.736;2024-03-22T07:34:24;97109.35;;;13.24;71.62
72118;BME280;59992;47.490;8.736;2024-03-22T07:37:12;97102.20;;;13.69;71.64
72118;BME280;59992;47.490;8.736;2024-03-22T07:40:01;97099.19;;;14.16;66.73
72118;BME280;59992;47.490;8.736;2024-03-22T07:42:49;97098.40;;;14.40;66.44
72118;BME280;59992;47.490;8.736;2024-03-22T07:45:37;97101.26;;;14.72;66.65
72118;BME280;59992;47.490;8.736;2024-03-22T07:48:26;97099.95;;;15.22;68.53
72118;BME280;59992;47.490;8.736;2024-03-22T07:51:15;97100.59;;;15.51;62.61
72118;BME280;59992;47.490;8.736;2024-03-22T07:54:03;97102.80;;;15.95;65.33
72118;BME280;59992;47.490;8.736;2024-03-22T07:56:51;97098.00;;;16.12;60.09
72118;BME280;59992;47.490;8.736;2024-03-22T07:59:40;97098.75;;;16.13;58.47
72118;BME280;59992;47.490;8.736;2024-03-22T08:02:31;97097.75;;;16.43;61.07
72118;BME280;59992;47.490;8.736;2024-03-22T08:05:19;97093.47;;;16.85;63.65
72118;BME280;59992;47.490;8.736;2024-03-22T08:08:08;97093.52;;;17.10;57.82
72118;BME280;59992;47.490;8.736;2024-03-22T08:10:56;97092.20;;;17.50;60.20
72118;BME280;59992;47.490;8.736;2024-03-22T08:13:44;97088.73;;;17.68;54.36
72118;BME280;59992;47.490;8.736;2024-03-22T08:16:34;97086.91;;;17.88;54.36
72118;BME280;59992;47.490;8.736;2024-03-22T08:19:22;97086.75;;;17.99;54.44
72118;BME280;59992;47.490;8.736;2024-03-22T08:22:10;97074.42;;;18.16;54.49
72118;BME280;59992;47.490;8.736;2024-03-22T08:24:58;97066.70;;;18.13;53.15
72118;BME280;59992;47.490;8.736;2024-03-22T08:27:50;97066.50;;;18.19;53.39
72118;BME280;59992;47.490;8.736;2024-03-22T08:30:40;97064.77;;;18.43;51.41
72118;BME280;59992;47.490;8.736;2024-03-22T08:33:30;97063.91;;;18.81;53.03
72118;BME280;59992;47.490;8.736;2024-03-22T08:36:18;97056.20;;;19.04;53.19
72118;BME280;59992;47.490;8.736;2024-03-22T08:39:06;97050.11;;;18.87;48.71
72118;BME280;59992;47.490;8.736;2024-03-22T08:41:58;97042.44;;;19.17;48.51
72118;BME280;59992;47.490;8.736;2024-03-22T08:44:46;97033.46;;;18.78;47.33
72118;BME280;59992;47.490;8.736;2024-03-22T08:47:34;97045.84;;;18.77;48.12
72118;BME280;59992;47.490;8.736;2024-03-22T08:50:22;97046.66;;;18.99;48.31
72118;BME280;59992;47.490;8.736;2024-03-22T08:53:11;97048.64;;;19.18;47.70
72118;BME280;59992;47.490;8.736;2024-03-22T08:55:59;97045.68;;;19.21;47.08
72118;BME280;59992;47.490;8.736;2024-03-22T08:58:47;97047.11;;;19.29;47.89
72118;BME280;59992;47.490;8.736;2024-03-22T09:01:35;97041.85;;;19.27;49.06
72118;BME280;59992;47.490;8.736;2024-03-22T09:04:24;97038.61;;;19.27;47.60
72118;BME280;59992;47.490;8.736;2024-03-22T09:07:12;97035.96;;;19.18;48.08
72118;BME280;59992;47.490;8.736;2024-03-22T09:10:00;97031.95;;;19.33;49.36
72118;BME280;59992;47.490;8.736;2024-03-22T09:12:49;97035.44;;;19.06;47.51
72118;BME280;59992;47.490;8.736;2024-03-22T09:15:37;97035.90;;;19.10;48.02
72118;BME280;59992;47.490;8.736;2024-03-22T09:18:25;97031.80;;;18.96;47.83
72118;BME280;59992;47.490;8.736;2024-03-22T09:21:13;97034.52;;;18.92;48.67
72118;BME280;59992;47.490;8.736;2024-03-22T09:24:02;97027.74;;;18.76;47.60
72118;BME280;59992;47.490;8.736;2024-03-22T09:26:50;97024.70;;;18.67;48.70
72118;BME280;59992;47.490;8.736;2024-03-22T09:29:38;97023.70;;;18.73;49.48
72118;BME280;59992;47.490;8.736;2024-03-22T09:32:26;97022.63;;;18.73;49.49
72118;BME280;59992;47.490;8.736;2024-03-22T09:35:15;97012.63;;;18.55;48.56
72118;BME280;59992;47.490;8.736;2024-03-22T09:38:04;97011.41;;;18.47;49.40
72118;BME280;59992;47.490;8.736;2024-03-22T09:40:52;97006.20;;;18.38;49.17
72118;BME280;59992;47.490;8.736;2024-03-22T09:43:44;97003.69;;;18.20;49.33
72118;BME280;59992;47.490;8.736;2024-03-22T09:46:39;96998.88;;;18.19;50.16
72118;BME280;59992;47.490;8.736;2024-03-22T09:49:27;96987.67;;;18.13;50.65
72118;BME280;59992;47.490;8.736;2024-03-22T09:52:18;96996.01;;;18.06;50.34
72118;BME280;59992;47.490;8.736;2024-03-22T09:55:09;96996.48;;;17.97;50.19
72118;BME280;59992;47.490;8.736;2024-03-22T09:57:58;96993.56;;;17.80;51.21
72118;BME280;59992;47.490;8.736;2024-03-22T10:00:47;96991.02;;;17.91;51.29
72118;BME280;59992;47.490;8.736;2024-03-22T10:03:35;96986.30;;;17.77;51.88
72118;BME280;59992;47.490;8.736;2024-03-22T10:06:24;96995.73;;;17.86;50.66
72118;BME280;59992;47.490;8.736;2024-03-22T10:09:12;96990.83;;;17.86;49.87
72118;BME280;59992;47.490;8.736;2024-03-22T10:12:01;96990.30;;;17.92;50.40
72118;BME280;59992;47.490;8.736;2024-03-22T10:14:49;96989.83;;;17.85;50.75
72118;BME280;59992;47.490;8.736;2024-03-22T10:17:37;96983.48;;;17.85;50.54
72118;BME280;59992;47.490;8.736;2024-03-22T10:20:26;96973.83;;;17.76;50.17
72118;BME280;59992;47.490;8.736;2024-03-22T10:23:15;96969.83;;;17.77;51.27
72118;BME280;59992;47.490;8.736;2024-03-22T10:26:04;96960.52;;;17.81;51.67
72118;BME280;59992;47.490;8.736;2024-03-22T10:28:53;96957.96;;;17.77;50.30
72118;BME280;59992;47.490;8.736;2024-03-22T10:31:41;96951.30;;;17.76;50.42
72118;BME280;59992;47.490;8.736;2024-03-22T10:34:30;96955.38;;;17.74;49.48
72118;BME280;59992;47.490;8.736;2024-03-22T10:37:21;96952.77;;;17.66;48.55
72118;BME280;59992;47.490;8.736;2024-03-22T10:40:11;96949.09;;;17.57;48.97
72118;BME280;59992;47.490;8.736;2024-03-22T10:43:00;96945.84;;;17.62;50.40
72118;BME280;59992;47.490;8.736;2024-03-22T10:45:51;96940.60;;;17.65;48.72
72118;BME280;59992;47.490;8.736;2024-03-22T10:48:44;96936.55;;;17.64;47.62
72118;BME280;59992;47.490;8.736;2024-03-22T10:51:34;96929.78;;;17.66;48.64
72118;BME280;59992;47.490;8.736;2024-03-22T10:54:28;96935.12;;;17.79;47.76
72118;BME280;59992;47.490;8.736;2024-03-22T10:57:19;96922.62;;;17.79;45.30
72118;BME280;59992;47.490;8.736;2024-03-22T11:00:12;96912.42;;;17.87;47.44
72118;BME280;59992;47.490;8.736;2024-03-22T11:03:04;96912.31;;;17.98;46.20
72118;BME280;59992;47.490;8.736;2024-03-22T11:05:54;96906.27;;;18.11;47.31
72118;BME280;59992;47.490;8.736;2024-03-22T11:08:43;96909.89;;;18.23;47.21
72118;BME280;59992;47.490;8.736;2024-03-22T11:11:31;96902.70;;;18.27;44.58
72118;BME280;59992;47.490;8.736;2024-03-22T11:14:24;96897.82;;;18.32;45.63
72118;BME280;59992;47.490;8.736;2024-03-22T11:17:13;96895.39;;;18.30;43.32
72118;BME280;59992;47.490;8.736;2024-03-22T11:20:03;96890.92;;;18.31;45.02
72118;BME280;59992;47.490;8.736;2024-03-22T11:22:52;96891.08;;;18.26;43.28
72118;BME280;59992;47.490;8.736;2024-03-22T11:25:40;96884.52;;;18.29;44.84
72118;BME280;59992;47.490;8.736;2024-03-22T11:28:29;96879.15;;;18.35;45.70
72118;BME280;59992;47.490;8.736;2024-03-22T11:31:17;96875.80;;;18.40;43.98
72118;BME280;59992;47.490;8.736;2024-03-22T11:34:07;96875.34;;;18.48;41.01
72118;BME280;59992;47.490;8.736;2024-03-22T11:36:55;96863.86;;;18.44;40.78
72118;BME280;59992;47.490;8.736;2024-03-22T11:39:43;96869.55;;;18.50;39.23
72118;BME280;59992;47.490;8.736;2024-03-22T11:42:33;96866.48;;;18.51;39.19
72118;BME280;59992;47.490;8.736;2024-03-22T11:45:23;96859.48;;;18.52;38.94
72118;BME280;59992;47.490;8.736;2024-03-22T11:48:12;96850.23;;;18.50;37.95
72118;BME280;59992;47.490;8.736;2024-03-22T11:51:00;96849.40;;;18.48;39.34
72118;BME280;59992;47.490;8.736;2024-03-22T11:53:52;96844.60;;;18.56;40.66
72118;BME280;59992;47.490;8.736;2024-03-22T11:56:41;96842.02;;;18.49;38.53
72118;BME280;59992;47.490;8.736;2024-03-22T11:59:33;96837.95;;;18.56;39.37
72118;BME280;59992;47.490;8.736;2024-03-22T12:02:22;96837.15;;;18.52;38.59
72118;BME280;59992;47.490;8.736;2024-03-22T12:05:10;96826.94;;;18.63;38.37
72118;BME280;59992;47.490;8.736;2024-03-22T12:07:58;96821.27;;;18.68;38.78
72118;BME280;59992;47.490;8.736;2024-03-22T12:10:46;96815.00;;;18.82;40.18
72118;BME280;59992;47.490;8.736;2024-03-22T12:13:35;96811.27;;;18.85;40.18
72118;BME280;59992;47.490;8.736;2024-03-22T12:16:23;96803.43;;;18.80;39.37
72118;BME280;59992;47.490;8.736;2024-03-22T12:19:11;96799.88;;;18.82;39.23
72118;BME280;59992;47.490;8.736;2024-03-22T12:21:59;96799.05;;;18.81;38.60
72118;BME280;59992;47.490;8.736;2024-03-22T12:24:48;96792.76;;;18.86;39.14
72118;BME280;59992;47.490;8.736;2024-03-22T12:27:36;96788.13;;;18.96;39.58
72118;BME280;59992;47.490;8.736;2024-03-22T12:30:25;96781.23;;;19.06;39.42
72118;BME280;59992;47.490;8.736;2024-03-22T12:33:14;96774.79;;;19.14;39.25
72118;BME280;59992;47.490;8.736;2024-03-22T12:36:02;96771.00;;;19.19;38.72
72118;BME280;59992;47.490;8.736;2024-03-22T12:38:50;96765.61;;;19.21;37.66
72118;BME280;59992;47.490;8.736;2024-03-22T12:41:38;96753.33;;;19.25;36.49
72118;BME280;59992;47.490;8.736;2024-03-22T12:44:29;96750.63;;;19.35;37.66
72118;BME280;59992;47.490;8.736;2024-03-22T12:47:18;96743.17;;;19.35;37.69
72118;BME280;59992;47.490;8.736;2024-03-22T12:50:08;96735.83;;;19.33;37.71
72118;BME280;59992;47.490;8.736;2024-03-22T12:52:57;96728.08;;;19.28;38.47
72118;BME280;59992;47.490;8.736;2024-03-22T12:55:46;96723.42;;;19.30;39.07
72118;BME280;59992;47.490;8.736;2024-03-22T12:58:35;96719.23;;;19.29;37.23
72118;BME280;59992;47.490;8.736;2024-03-22T13:01:23;96717.17;;;19.23;36.13
72118;BME280;59992;47.490;8.736;2024-03-22T13:04:12;96710.73;;;19.24;36.64
72118;BME280;59992;47.490;8.736;2024-03-22T13:07:00;96708.73;;;19.28;35.57
72118;BME280;59992;47.490;8.736;2024-03-22T13:09:49;96706.66;;;19.28;35.40
72118;BME280;59992;47.490;8.736;2024-03-22T13:12:38;96697.98;;;19.27;37.62
72118;BME280;59992;47.490;8.736;2024-03-22T13:15:26;96692.83;;;19.37;38.19
72118;BME280;59992;47.490;8.736;2024-03-22T13:18:16;96697.11;;;19.38;37.43
72118;BME280;59992;47.490;8.736;2024-03-22T13:21:04;96689.17;;;19.39;37.93
72118;BME280;59992;47.490;8.736;2024-03-22T13:23:55;96681.55;;;19.44;38.86
72118;BME280;59992;47.490;8.736;2024-03-22T13:26:43;96676.81;;;19.39;38.69
72118;BME280;59992;47.490;8.736;2024-03-22T13:29:32;96678.70;;;19.45;38.80
72118;BME280;59992;47.490;8.736;2024-03-22T13:32:20;96670.21;;;19.46;37.13
72118;BME280;59992;47.490;8.736;2024-03-22T13:35:09;96664.01;;;19.53;38.62
72118;BME280;59992;47.490;8.736;2024-03-22T13:37:58;96656.50;;;19.48;38.20
72118;BME280;59992;47.490;8.736;2024-03-22T13:40:54;96649.48;;;19.42;37.67
72118;BME280;59992;47.490;8.736;2024-03-22T13:43:43;96644.91;;;19.37;38.02
72118;BME280;59992;47.490;8.736;2024-03-22T13:46:33;96642.14;;;19.21;37.50
72118;BME280;59992;47.490;8.736;2024-03-22T13:49:24;96637.50;;;19.30;37.49
72118;BME280;59992;47.490;8.736;2024-03-22T13:52:12;96628.02;;;19.27;37.99
72118;BME280;59992;47.490;8.736;2024-03-22T13:55:01;96625.42;;;19.36;38.80
72118;BME280;59992;47.490;8.736;2024-03-22T13:57:52;96622.67;;;19.42;37.76
72118;BME280;59992;47.490;8.736;2024-03-22T14:00:40;96614.16;;;19.48;37.59
72118;BME280;59992;47.490;8.736;2024-03-22T14:03:28;96606.60;;;19.46;37.10
72118;BME280;59992;47.490;8.736;2024-03-22T14:06:17;96602.46;;;19.50;37.84
72118;BME280;59992;47.490;8.736;2024-03-22T14:09:05;96597.67;;;19.51;36.80
72118;BME280;59992;47.490;8.736;2024-03-22T14:12:01;96590.73;;;19.53;36.97
72118;BME280;59992;47.490;8.736;2024-03-22T14:14:50;96582.23;;;19.47;37.03
72118;BME280;59992;47.490;8.736;2024-03-22T14:17:38;96578.38;;;19.48;37.49
72118;BME280;59992;47.490;8.736;2024-03-22T14:20:26;96573.00;;;19.44;36.08
72118;BME280;59992;47.490;8.736;2024-03-22T14:23:15;96567.61;;;19.42;36.72
72118;BME280;59992;47.490;8.736;2024-03-22T14:26:03;96562.23;;;19.34;35.95
72118;BME280;59992;47.490;8.736;2024-03-22T14:28:51;96557.60;;;19.35;37.18
72118;BME280;59992;47.490;8.736;2024-03-22T14:31:40;96556.09;;;19.34;37.04
72118;BME280;59992;47.490;8.736;2024-03-22T14:34:30;96550.33;;;19.30;36.83
72118;BME280;59992;47.490;8.736;2024-03-22T14:37:26;96549.75;;;19.20;36.31
72118;BME280;59992;47.490;8.736;2024-03-22T14:40:14;96544.98;;;19.21;36.50
72118;BME280;59992;47.490;8.736;2024-03-22T14:43:04;96542.57;;;19.18;35.46
72118;BME280;59992;47.490;8.736;2024-03-22T14:45:52;96539.40;;;19.16;36.07
72118;BME280;59992;47.490;8.736;2024-03-22T14:48:41;96536.58;;;19.19;36.47
72118;BME280;59992;47.490;8.736;2024-03-22T14:51:30;96531.95;;;19.23;37.19
72118;BME280;59992;47.490;8.736;2024-03-22T14:54:19;96522.22;;;19.29;36.92
72118;BME280;59992;47.490;8.736;2024-03-22T14:57:07;96516.57;;;19.33;37.88